Time;durP1;ratioP1;P1;durP2;ratioP2;P2;SDS_P1;SDS_P2;PMS_P1;PMS_P2;Temp;Humidity;BMP_temperature;BMP_pressure;BME280_temperature;BME280_humidity;BME280_pressure;Samples;Min_cycle;Max_cycle;Signal;HPM_P1;HPM_P2
2022/03/25 00:00:14;;;;;;;22.02;9.88;;;;;;;2.01;87.38;99356.91;5084793;28;20021;-66
2022/03/25 00:02:42;;;;;;;23.95;10.75;;;;;;;1.98;87.34;99355.91;5086881;28;20021;-66
2022/03/25 00:05:08;;;;;;;20.08;10.07;;;;;;;2.01;87.31;99362.09;5086841;28;20024;-66
2022/03/25 00:07:34;;;;;;;23.13;10.85;;;;;;;2.05;87.00;99357.81;5086761;28;20044;-66
2022/03/25 00:10:00;;;;;;;22.30;11.63;;;;;;;2.04;86.84;99361.28;5069850;28;20324;-66
2022/03/25 00:12:26;;;;;;;25.92;10.40;;;;;;;1.88;85.97;99354.81;5066597;28;20035;-66
2022/03/25 00:14:52;;;;;;;21.10;10.27;;;;;;;1.72;86.69;99362.16;5066492;28;20236;-66
2022/03/25 00:17:17;;;;;;;19.42;9.50;;;;;;;1.69;86.85;99354.28;5066888;28;20029;-66
2022/03/25 00:19:43;;;;;;;21.45;10.82;;;;;;;1.82;86.81;99358.97;5080199;28;20032;-66
2022/03/25 00:22:08;;;;;;;22.45;9.23;;;;;;;1.56;85.97;99354.78;5086604;28;20275;-66
2022/03/25 00:24:34;;;;;;;28.75;10.48;;;;;;;1.52;86.79;99358.16;5086545;28;20087;-66
2022/03/25 00:26:59;;;;;;;26.40;11.80;;;;;;;1.55;87.61;99356.50;5086705;28;20055;-66
2022/03/25 00:29:25;;;;;;;38.75;10.63;;;;;;;1.58;88.08;99359.19;5075188;28;20394;-66
2022/03/25 00:31:50;;;;;;;26.83;11.32;;;;;;;1.50;88.01;99354.63;5066341;28;20047;-66
2022/03/25 00:34:15;;;;;;;20.02;10.68;;;;;;;1.50;88.09;99357.22;5066299;28;20028;-66
2022/03/25 00:36:41;;;;;;;26.38;11.70;;;;;;;1.48;88.28;99346.81;5066253;28;20033;-66
2022/03/25 00:39:08;;;;;;;29.38;12.35;;;;;;;1.46;88.26;99356.25;5074034;28;20030;-66
2022/03/25 00:41:36;;;;;;;23.80;10.85;;;;;;;1.48;88.74;99351.09;5084976;28;20028;-66
2022/03/25 00:44:03;;;;;;;21.15;9.70;;;;;;;1.38;87.97;99352.56;5086162;28;20024;-66
2022/03/25 00:46:29;;;;;;;19.15;9.15;;;;;;;1.33;87.29;99345.50;5085893;28;20267;-66
2022/03/25 00:48:56;;;;;;;23.58;11.10;;;;;;;1.23;87.82;99353.88;5079597;28;20035;-66
2022/03/25 00:51:21;;;;;;;22.10;11.02;;;;;;;1.22;88.53;99352.97;5066154;28;20036;-66
2022/03/25 00:53:47;;;;;;;23.02;11.30;;;;;;;1.28;88.23;99341.91;5065893;28;20225;-66
2022/03/25 00:56:12;;;;;;;22.70;9.48;;;;;;;1.36;88.55;99343.00;5065908;28;20070;-66
2022/03/25 00:58:38;;;;;;;20.65;9.85;;;;;;;1.36;88.61;99343.00;5069362;28;20308;-66
2022/03/25 01:01:03;;;;;;;25.75;12.60;;;;;;;1.28;89.06;99347.97;5084218;28;20080;-66
2022/03/25 01:03:30;;;;;;;28.80;12.35;;;;;;;1.26;89.18;99344.44;5085823;28;20320;-66
2022/03/25 01:05:55;;;;;;;25.90;12.13;;;;;;;1.27;88.80;99341.00;5085686;28;20025;-66
2022/03/25 01:08:21;;;;;;;31.73;11.63;;;;;;;1.25;88.34;99347.00;5084307;28;20031;-66
2022/03/25 01:10:46;;;;;;;28.25;12.75;;;;;;;1.10;87.61;99338.78;5065457;28;20032;-66
2022/03/25 01:13:12;;;;;;;22.52;10.52;;;;;;;0.99;88.13;99342.78;5065573;28;20025;-66
2022/03/25 01:15:38;;;;;;;20.67;10.20;;;;;;;0.90;87.97;99338.22;5065368;28;20240;-66
2022/03/25 01:18:03;;;;;;;24.35;11.73;;;;;;;0.94;88.53;99333.97;5077592;28;20087;-66
2022/03/25 01:20:29;;;;;;;17.15;9.35;;;;;;;1.00;88.68;99341.94;5066754;28;20044;-66
2022/03/25 01:22:55;;;;;;;20.67;10.57;;;;;;;1.02;89.29;99338.56;5065406;28;20045;-66
2022/03/25 01:25:20;;;;;;;25.50;12.85;;;;;;;1.01;89.64;99341.13;5065324;28;20320;-66
2022/03/25 01:27:46;;;;;;;21.80;10.77;;;;;;;1.01;89.85;99346.31;5065285;28;20316;-66
2022/03/25 01:30:12;;;;;;;37.58;13.68;;;;;;;0.98;89.57;99341.88;5080603;28;20024;-66
2022/03/25 01:32:38;;;;;;;22.67;10.68;;;;;;;0.99;89.67;99337.59;5085355;28;20250;-66
2022/03/25 01:35:12;;;;;;;21.27;11.00;;;;;;;0.80;88.44;99336.19;5085142;28;20024;-66
2022/03/25 01:37:38;;;;;;;26.17;10.85;;;;;;;0.75;88.97;99329.09;5066072;28;20252;-66
2022/03/25 01:40:09;;;;;;;23.80;10.90;;;;;;;0.72;88.79;99331.59;5079294;28;20020;-66
2022/03/25 01:42:37;;;;;;;20.98;10.35;;;;;;;0.70;89.08;99328.97;5084980;28;20079;-66
2022/03/25 01:45:04;;;;;;;20.20;10.00;;;;;;;0.76;89.38;99331.72;5084916;28;20140;-66
2022/03/25 01:47:31;;;;;;;32.10;12.13;;;;;;;0.77;89.63;99335.19;5084865;28;20157;-66
2022/03/25 01:49:58;;;;;;;28.33;13.43;;;;;;;0.84;88.86;99326.78;5071511;28;20070;-66
2022/03/25 01:52:24;;;;;;;24.17;11.02;;;;;;;0.82;89.73;99328.47;5064427;28;20092;-66
2022/03/25 01:54:49;;;;;;;30.83;12.68;;;;;;;0.82;90.21;99320.69;5064684;28;20029;-66
2022/03/25 01:57:15;;;;;;;31.52;11.45;;;;;;;0.80;90.13;99319.75;5064714;28;20080;-66
2022/03/25 01:59:40;;;;;;;26.85;11.32;;;;;;;0.82;90.04;99323.28;5075224;28;20032;-66
2022/03/25 02:02:07;;;;;;;31.23;10.77;;;;;;;0.72;89.50;99326.41;5084808;28;20028;-66
2022/03/25 02:04:33;;;;;;;23.05;10.82;;;;;;;0.83;89.25;99320.72;5084564;28;20027;-66
2022/03/25 02:06:59;;;;;;;26.73;11.73;;;;;;;0.67;88.66;99317.63;5084327;28;20028;-66
2022/03/25 02:09:25;;;;;;;21.13;10.43;;;;;;;0.67;89.02;99322.81;5075949;28;20107;-66
2022/03/25 02:11:51;;;;;;;36.10;14.68;;;;;;;0.64;88.96;99317.53;5064375;28;20077;-66
2022/03/25 02:14:16;;;;;;;25.77;10.23;;;;;;;0.63;89.03;99321.81;5064259;28;20057;-66
2022/03/25 02:16:44;;;;;;;28.30;12.05;;;;;;;0.65;89.58;99319.28;5064408;28;20021;-66
2022/03/25 02:19:12;;;;;;;21.30;10.73;;;;;;;0.57;89.13;99313.00;5078152;28;20021;-66
2022/03/25 02:21:41;;;;;;;23.80;12.13;;;;;;;0.57;89.59;99310.41;5064266;28;20021;-66
2022/03/25 02:24:09;;;;;;;28.90;11.45;;;;;;;0.44;88.55;99308.28;5064266;28;20288;-66
2022/03/25 02:26:36;;;;;;;32.00;12.23;;;;;;;0.50;88.97;99317.09;5074475;28;20031;-67
2022/03/25 02:29:04;;;;;;;20.65;10.80;;;;;;;0.46;88.88;99306.59;5079155;28;20193;-66
2022/03/25 02:31:29;;;;;;;50.60;14.48;;;;;;;0.43;89.26;99311.69;5064005;28;20025;-66
2022/03/25 02:34:01;;;;;;;23.33;11.18;;;;;;;0.42;89.85;99313.41;5064155;28;20032;-66
2022/03/25 02:36:27;;;;;;;26.00;11.27;;;;;;;0.46;90.07;99311.78;5064085;28;20024;-66
2022/03/25 02:38:53;;;;;;;27.48;12.20;;;;;;;0.55;89.30;99309.47;5067335;28;20091;-66
2022/03/25 02:41:18;;;;;;;25.67;11.07;;;;;;;0.56;88.70;99313.81;5084078;28;20017;-66
2022/03/25 02:43:44;;;;;;;29.77;11.95;;;;;;;0.38;88.21;99318.44;5084004;28;20028;-66
2022/03/25 02:46:10;;;;;;;26.95;12.30;;;;;;;0.42;88.60;99315.13;5084001;28;20021;-66
2022/03/25 02:48:35;;;;;;;34.15;13.05;;;;;;;0.35;88.31;99308.00;5083042;28;20024;-67
2022/03/25 02:51:01;;;;;;;38.28;12.70;;;;;;;0.25;88.33;99311.13;5063826;28;20024;-66
2022/03/25 02:53:27;;;;;;;32.05;13.32;;;;;;;0.14;88.27;99307.31;5063865;28;20025;-66
2022/03/25 02:55:53;;;;;;;25.33;12.05;;;;;;;0.28;88.72;99312.09;5063818;28;20017;-66
2022/03/25 02:58:19;;;;;;;29.60;10.98;;;;;;;0.29;89.47;99315.56;5065134;28;20036;-66
2022/03/25 03:00:45;;;;;;;29.40;11.57;;;;;;;0.27;89.80;99309.44;5083839;28;20047;-66
2022/03/25 03:03:10;;;;;;;33.67;10.55;;;;;;;0.24;90.32;99314.53;5083824;28;20379;-66
2022/03/25 03:05:36;;;;;;;26.15;11.93;;;;;;;0.27;90.92;99314.63;5084413;28;20084;-66
2022/03/25 03:08:01;;;;;;;34.20;14.70;;;;;;;0.24;89.86;99314.53;5088063;28;20204;-66
2022/03/25 03:10:27;;;;;;;37.45;12.70;;;;;;;0.14;89.54;99315.97;5068751;28;20021;-66
2022/03/25 03:12:53;;;;;;;26.92;12.43;;;;;;;0.25;89.74;99316.31;5067754;28;20021;-66
2022/03/25 03:15:20;;;;;;;39.75;12.82;;;;;;;0.28;89.53;99313.81;5067634;28;20087;-66
2022/03/25 03:17:46;;;;;;;36.42;13.82;;;;;;;0.21;89.32;99314.44;5067730;28;20025;-66
2022/03/25 03:20:13;;;;;;;31.75;12.25;;;;;;;0.14;89.27;99305.59;5084337;28;20100;-67
2022/03/25 03:22:39;;;;;;;26.00;11.90;;;;;;;0.20;89.05;99317.88;5087637;28;20021;-67
2022/03/25 03:25:05;;;;;;;29.27;12.25;;;;;;;0.27;88.69;99315.53;5087673;28;20021;-67
2022/03/25 03:27:31;;;;;;;31.85;13.93;;;;;;;0.26;89.00;99310.28;5087670;28;20024;-67
2022/03/25 03:29:57;;;;;;;36.53;11.02;;;;;;;0.09;89.30;99308.88;5073168;28;20028;-67
2022/03/25 03:32:23;;;;;;;24.25;11.95;;;;;;;-0.04;88.94;99311.06;5067383;28;20078;-66
2022/03/25 03:34:49;;;;;;;31.48;12.32;;;;;;;-0.10;89.06;99304.81;5067658;28;20312;-66
2022/03/25 03:37:14;;;;;;;26.42;12.30;;;;;;;-0.10;89.61;99308.28;5067382;28;20021;-66
2022/03/25 03:39:40;;;;;;;30.20;12.57;;;;;;;-0.20;89.65;99306.22;5078518;28;20044;-66
2022/03/25 03:42:06;;;;;;;25.15;11.45;;;;;;;-0.30;90.16;99304.16;5087057;28;20008;-66
2022/03/25 03:44:31;;;;;;;34.33;15.30;;;;;;;-0.26;92.06;99306.00;5087337;28;20070;-66
2022/03/25 03:46:57;;;;;;;29.55;13.95;;;;;;;-0.26;91.54;99300.84;5087159;28;20020;-66
2022/03/25 03:49:23;;;;;;;33.83;11.82;;;;;;;-0.12;91.13;99299.56;5077840;28;20094;-66
2022/03/25 03:51:48;;;;;;;30.65;13.85;;;;;;;-0.07;90.39;99308.38;5067222;28;20312;-67
2022/03/25 03:54:14;;;;;;;39.58;15.07;;;;;;;-0.04;90.12;99311.06;5067059;28;20021;-67
2022/03/25 03:56:39;;;;;;;37.55;12.27;;;;;;;-0.17;90.06;99295.97;5067018;28;20020;-67
2022/03/25 03:59:04;;;;;;;28.92;12.60;;;;;;;-0.26;89.90;99295.66;5072892;28;20031;-67
2022/03/25 04:01:30;;;;;;;33.85;14.38;;;;;;;-0.26;90.20;99295.66;5087165;28;20260;-66
2022/03/25 04:03:55;;;;;;;33.03;15.13;;;;;;;-0.26;90.07;99295.66;5087170;28;20055;-66
2022/03/25 04:06:22;;;;;;;32.13;13.63;;;;;;;-0.19;90.60;99302.81;5086588;28;20021;-66
2022/03/25 04:08:48;;;;;;;35.40;12.98;;;;;;;-0.28;90.47;99291.28;5083256;28;20017;-66
2022/03/25 04:11:14;;;;;;;32.72;13.52;;;;;;;-0.29;89.48;99300.75;5066590;28;20343;-66
2022/03/25 04:13:40;;;;;;;35.25;13.18;;;;;;;-0.16;89.62;99302.91;5066737;28;20025;-66
2022/03/25 04:16:05;;;;;;;21.38;10.93;;;;;;;-0.21;89.06;99303.59;5066331;28;20048;-66
2022/03/25 04:18:31;;;;;;;36.47;13.38;;;;;;;-0.43;89.08;99307.16;5067454;28;20027;-66
2022/03/25 04:20:56;;;;;;;30.80;12.60;;;;;;;-0.44;89.46;99307.13;5086633;28;20039;-66
2022/03/25 04:23:22;;;;;;;39.95;14.00;;;;;;;-0.43;89.82;99301.09;5086576;28;20369;-66
2022/03/25 04:25:47;;;;;;;38.63;13.18;;;;;;;-0.31;90.30;99310.13;5086533;28;20024;-66
2022/03/25 04:28:13;;;;;;;32.63;15.95;;;;;;;-0.24;90.07;99308.66;5086449;28;20062;-66
2022/03/25 04:30:38;;;;;;;29.50;13.15;;;;;;;-0.35;90.04;99310.88;5067894;28;20193;-66
2022/03/25 04:33:04;;;;;;;39.60;13.60;;;;;;;-0.46;89.29;99307.06;5066360;28;20025;-66
2022/03/25 04:35:30;;;;;;;50.03;16.90;;;;;;;-0.45;90.03;99316.56;5066316;28;20094;-66
2022/03/25 04:37:57;;;;;;;35.00;15.55;;;;;;;-0.51;89.89;99298.25;5066291;28;20061;-66
2022/03/25 04:40:25;;;;;;;38.35;15.30;;;;;;;-0.42;90.49;99314.09;5085550;28;20035;-66
2022/03/25 04:42:52;;;;;;;34.63;14.70;;;;;;;-0.35;89.81;99316.03;5086218;28;20089;-66
2022/03/25 04:45:18;;;;;;;38.35;15.05;;;;;;;-0.44;90.08;99317.47;5086178;28;20269;-66
2022/03/25 04:47:44;;;;;;;31.35;13.93;;;;;;;-0.54;89.63;99316.25;5086108;28;20058;-66
2022/03/25 04:50:11;;;;;;;31.75;13.57;;;;;;;-0.51;90.21;99313.75;5068560;28;20024;-66
2022/03/25 04:52:37;;;;;;;45.60;17.00;;;;;;;-0.45;89.43;99319.16;5066148;28;20024;-66
2022/03/25 04:55:03;;;;;;;37.72;14.63;;;;;;;-0.57;88.96;99313.53;5066167;28;20347;-66
2022/03/25 04:57:28;;;;;;;38.78;13.90;;;;;;;-0.60;89.33;99315.16;5065878;28;20032;-66
2022/03/25 04:59:55;;;;;;;36.92;13.43;;;;;;;-0.53;89.91;99318.00;5065836;28;20039;-66
2022/03/25 05:02:20;;;;;;;38.35;15.38;;;;;;;-0.66;89.68;99308.06;5085066;28;20087;-65
2022/03/25 05:04:46;;;;;;;41.17;14.60;;;;;;;-0.65;90.23;99317.59;5085803;28;20346;-65
2022/03/25 05:07:15;;;;;;;33.50;14.52;;;;;;;-0.59;90.21;99320.41;5085461;28;20338;-65
2022/03/25 05:09:41;;;;;;;31.17;14.48;;;;;;;-0.58;90.74;99321.25;5085681;28;20339;-65
2022/03/25 05:12:07;;;;;;;30.73;13.45;;;;;;;-0.58;90.61;99322.16;5085506;28;20025;-65
2022/03/25 05:14:34;;;;;;;37.25;15.32;;;;;;;-0.63;90.28;99315.91;5082420;28;20032;-65
2022/03/25 05:16:59;;;;;;;30.77;12.77;;;;;;;-0.72;89.41;99319.91;5065839;28;20025;-65
2022/03/25 05:19:25;;;;;;;32.05;13.43;;;;;;;-0.67;89.70;99316.66;5065461;28;20224;-65
2022/03/25 05:21:51;;;;;;;29.77;13.50;;;;;;;-0.75;89.33;99328.44;5065415;28;20029;-66
2022/03/25 05:24:17;;;;;;;40.83;15.70;;;;;;;-0.69;89.57;99322.59;5065395;28;20025;-66
2022/03/25 05:26:42;;;;;;;28.42;13.00;;;;;;;-0.78;89.71;99324.84;5065339;28;20028;-66
2022/03/25 05:29:09;;;;;;;50.67;11.70;;;;;;;-0.86;89.65;99329.72;5064561;28;20029;-66
2022/03/25 05:31:36;;;;;;;38.83;15.18;;;;;;;-0.86;89.97;99324.56;5077104;28;20231;-66
2022/03/25 05:34:03;;;;;;;29.23;13.52;;;;;;;-0.74;89.51;99335.34;5084051;28;20036;-66
2022/03/25 05:36:31;;;;;;;31.40;13.25;;;;;;;-0.72;89.45;99327.66;5085215;28;20025;-66
2022/03/25 05:38:57;;;;;;;29.58;13.10;;;;;;;-0.65;88.67;99333.09;5075453;28;20032;-66
2022/03/25 05:41:24;;;;;;;34.67;14.15;;;;;;;-0.71;88.92;99329.41;5065051;28;20227;-66
2022/03/25 05:43:50;;;;;;;35.15;13.63;;;;;;;-0.62;89.54;99335.78;5064982;28;20031;-66
2022/03/25 05:46:16;;;;;;;39.97;15.63;;;;;;;-0.68;89.65;99339.84;5073555;28;20032;-66
2022/03/25 05:48:41;;;;;;;36.50;14.65;;;;;;;-0.59;89.60;99341.06;5080004;28;20025;-66
2022/03/25 05:51:06;;;;;;;38.63;13.55;;;;;;;-0.47;89.45;99344.06;5064720;28;20051;-66
2022/03/25 05:53:32;;;;;;;40.17;14.18;;;;;;;-0.37;89.51;99342.69;5064769;28;20025;-66
2022/03/25 05:55:59;;;;;;;34.22;13.65;;;;;;;-0.21;89.22;99357.91;5064799;28;20084;-66
2022/03/25 05:58:25;;;;;;;67.28;16.45;;;;;;;-0.12;90.03;99359.06;5064689;28;20044;-66
2022/03/25 06:00:50;;;;;;;34.85;12.02;;;;;;;-0.03;88.56;99354.22;5064675;28;20063;-66
2022/03/25 06:03:16;;;;;;;45.13;14.30;;;;;;;0.05;87.96;99349.31;5064628;28;20062;-66
2022/03/25 06:05:41;;;;;;;41.17;13.93;;;;;;;0.19;87.88;99348.03;5064599;28;20144;-66
2022/03/25 06:08:07;;;;;;;38.50;14.85;;;;;;;0.27;86.83;99351.75;5064597;28;20091;-66
2022/03/25 06:10:33;;;;;;;34.35;16.15;;;;;;;0.61;86.35;99364.94;5083282;28;20083;-66
2022/03/25 06:12:58;;;;;;;30.23;12.07;;;;;;;0.88;85.86;99364.91;5084367;28;20051;-66
2022/03/25 06:15:24;;;;;;;32.17;13.15;;;;;;;1.17;84.65;99369.25;5084245;28;20045;-66
2022/03/25 06:17:51;;;;;;;28.05;11.85;;;;;;;1.68;83.91;99376.75;5084148;28;20356;-66
2022/03/25 06:20:18;;;;;;;36.00;13.05;;;;;;;2.21;81.52;99378.16;5084356;28;20028;-66
2022/03/25 06:22:44;;;;;;;37.30;15.50;;;;;;;2.53;80.49;99379.81;5082713;28;20070;-66
2022/03/25 06:25:12;;;;;;;33.20;12.77;;;;;;;2.76;79.14;99383.84;5083341;28;20028;-66
2022/03/25 06:27:49;;;;;;;40.55;13.70;;;;;;;3.23;77.45;99393.56;5083314;28;20009;-66
2022/03/25 06:30:15;;;;;;;40.17;14.82;;;;;;;3.51;76.43;99393.31;5083335;28;20051;-66
2022/03/25 06:32:41;;;;;;;38.08;15.23;;;;;;;3.69;75.17;99390.19;5065204;28;20332;-66
2022/03/25 06:35:07;;;;;;;36.00;14.43;;;;;;;4.07;74.74;99392.69;5062757;28;20021;-66
2022/03/25 06:37:34;;;;;;;37.05;14.23;;;;;;;4.50;74.49;99396.91;5063162;28;20027;-66
2022/03/25 06:40:00;;;;;;;40.20;13.48;;;;;;;4.67;73.58;99404.97;5063112;28;20031;-66
2022/03/25 06:42:25;;;;;;;44.03;17.73;;;;;;;4.61;72.11;99391.84;5063072;28;20036;-66
2022/03/25 06:44:51;;;;;;;44.45;15.43;;;;;;;5.18;71.99;99404.03;5063308;28;20216;-66
2022/03/25 06:47:16;;;;;;;46.40;16.38;;;;;;;5.12;71.73;99405.72;5068009;28;20028;-66
2022/03/25 06:49:42;;;;;;;40.38;15.45;;;;;;;6.11;69.40;99413.06;5082848;28;20088;-66
2022/03/25 06:52:08;;;;;;;42.78;16.08;;;;;;;6.24;68.20;99406.25;5082965;28;20043;-66
2022/03/25 06:54:34;;;;;;;32.38;14.07;;;;;;;6.83;67.06;99420.72;5082795;28;20295;-66
2022/03/25 06:57:01;;;;;;;35.80;15.00;;;;;;;7.03;66.38;99416.53;5082627;28;20024;-66
2022/03/25 06:59:27;;;;;;;32.83;14.18;;;;;;;7.25;66.11;99418.41;5083213;28;20047;-66
2022/03/25 07:01:53;;;;;;;35.47;14.25;;;;;;;7.62;65.12;99422.09;5074904;28;20017;-66
2022/03/25 07:04:18;;;;;;;30.85;14.25;;;;;;;7.91;63.98;99426.59;5082890;28;20028;-66
2022/03/25 07:06:48;;;;;;;37.05;15.25;;;;;;;8.23;63.63;99422.34;5082874;28;20013;-66
2022/03/25 07:09:14;;;;;;;28.85;12.95;;;;;;;8.43;62.75;99428.53;5083356;28;20028;-66
2022/03/25 07:11:40;;;;;;;29.30;13.25;;;;;;;8.75;62.08;99428.56;5084017;28;20021;-67
2022/03/25 07:14:06;;;;;;;22.38;11.68;;;;;;;9.13;61.72;99439.03;5082118;28;20036;-66
2022/03/25 07:16:32;;;;;;;25.42;12.40;;;;;;;9.49;61.33;99433.75;5083677;28;20071;-67
2022/03/25 07:18:59;;;;;;;27.63;12.35;;;;;;;9.89;60.88;99440.63;5083711;28;20025;-68
2022/03/25 07:21:25;;;;;;;25.33;13.15;;;;;;;10.22;60.46;99437.88;5083637;28;20047;-67
2022/03/25 07:23:50;;;;;;;22.13;11.80;;;;;;;10.55;59.31;99437.66;5083663;28;20024;-67
2022/03/25 07:26:17;;;;;;;22.58;12.55;;;;;;;10.73;58.23;99437.56;5083601;28;20024;-67
2022/03/25 07:28:42;;;;;;;22.65;11.85;;;;;;;10.78;58.77;99435.75;5083499;28;20025;-67
2022/03/25 07:31:08;;;;;;;21.67;11.65;;;;;;;11.37;57.99;99444.03;5083525;28;20074;-67
2022/03/25 07:33:33;;;;;;;20.65;11.75;;;;;;;11.86;57.80;99444.38;5083584;28;20033;-67
2022/03/25 07:36:00;;;;;;;22.20;11.25;;;;;;;12.17;57.29;99446.66;5083545;28;20031;-67
2022/03/25 07:38:27;;;;;;;24.55;12.77;;;;;;;12.63;56.77;99453.03;5083505;28;20070;-67
2022/03/25 07:40:52;;;;;;;26.58;12.00;;;;;;;13.00;55.01;99448.97;5083442;28;20339;-67
2022/03/25 07:43:18;;;;;;;21.52;12.70;;;;;;;13.46;53.62;99442.91;5083701;28;20021;-67
2022/03/25 07:45:44;;;;;;;28.10;13.95;;;;;;;13.73;52.45;99447.69;5083445;28;20028;-67
2022/03/25 07:48:09;;;;;;;32.25;17.73;;;;;;;12.71;54.31;99435.31;5083420;28;20372;-68
2022/03/25 07:50:35;;;;;;;30.63;17.50;;;;;;;13.20;53.33;99439.84;5083824;28;20028;-68
2022/03/25 07:53:00;;;;;;;31.58;17.98;;;;;;;13.28;53.34;99440.56;5087041;28;20020;-67
2022/03/25 07:55:26;;;;;;;31.02;17.15;;;;;;;14.17;54.10;99450.31;5087083;28;20066;-67
2022/03/25 07:57:51;;;;;;;31.02;16.95;;;;;;;15.06;51.70;99462.44;5087052;28;20020;-67
2022/03/25 08:00:18;;;;;;;36.92;18.55;;;;;;;15.40;50.43;99457.22;5087015;28;20028;-67
2022/03/25 08:02:46;;;;;;;42.25;19.63;;;;;;;15.02;50.44;99460.78;5087221;28;20017;-67
2022/03/25 08:05:13;;;;;;;38.72;20.35;;;;;;;15.67;49.21;99462.69;5086939;28;20027;-67
2022/03/25 08:07:52;;;;;;;35.05;20.05;;;;;;;15.69;48.34;99460.84;5086847;28;20031;-67
2022/03/25 08:10:20;;;;;;;38.03;19.17;;;;;;;16.51;48.17;99468.25;5085916;28;20021;-67
2022/03/25 08:12:46;;;;;;;51.25;22.95;;;;;;;16.14;48.53;99453.41;5086975;28;20092;-67
2022/03/25 08:15:13;;;;;;;38.13;18.48;;;;;;;17.00;44.78;99460.50;5086577;28;20078;-67
2022/03/25 08:18:10;;;;;;;42.08;19.60;;;;;;;17.27;45.40;99473.84;5086663;28;20055;-67
2022/03/25 08:20:41;;;;;;;36.40;19.42;;;;;;;17.62;41.79;99476.22;5086909;28;20020;-67
2022/03/25 08:23:09;;;;;;;34.65;18.48;;;;;;;17.78;40.76;99469.44;5086650;28;20346;-67
2022/03/25 08:28:19;;;;;;;41.60;19.23;;;;;;;17.70;42.20;99474.16;5086565;28;20039;-67
2022/03/25 08:30:46;;;;;;;40.47;20.70;;;;;;;18.04;41.69;99472.94;5086268;28;20323;-67
2022/03/25 08:33:12;;;;;;;33.47;19.70;;;;;;;18.06;41.03;99468.41;5086351;28;20031;-67
2022/03/25 08:35:38;;;;;;;40.25;19.88;;;;;;;18.61;38.88;99470.78;5086389;28;20027;-67
2022/03/25 08:38:05;;;;;;;38.33;19.85;;;;;;;18.50;41.85;99474.78;5086347;28;20085;-67
2022/03/25 08:40:32;;;;;;;39.75;21.20;;;;;;;18.94;40.01;99481.94;5086275;28;20034;-67
2022/03/25 08:42:58;;;;;;;39.78;21.42;;;;;;;18.60;40.09;99470.84;5086519;28;20277;-67
2022/03/25 08:45:24;;;;;;;43.40;22.23;;;;;;;19.25;40.07;99474.44;5086453;28;20208;-67
2022/03/25 08:47:50;;;;;;;38.72;20.90;;;;;;;20.13;38.31;99475.16;5086163;28;20017;-67
2022/03/25 08:50:17;;;;;;;40.03;21.45;;;;;;;20.11;37.20;99481.44;5086117;28;20043;-67
2022/03/25 08:52:44;;;;;;;37.55;20.88;;;;;;;20.29;37.93;99475.31;5086067;28;20265;-67
2022/03/25 08:55:11;;;;;;;41.95;21.17;;;;;;;20.13;37.35;99475.16;5086043;28;20032;-67
2022/03/25 08:57:38;;;;;;;38.53;20.15;;;;;;;20.47;36.58;99474.50;5085966;28;20315;-67
2022/03/25 09:00:10;;;;;;;38.65;22.20;;;;;;;20.37;37.91;99479.38;5086210;28;20324;-67
2022/03/25 09:02:35;;;;;;;38.65;22.00;;;;;;;20.27;37.68;99478.06;5085072;28;20272;-67
2022/03/25 09:05:01;;;;;;;36.03;19.83;;;;;;;20.56;36.72;99480.28;5085816;28;20024;-67
2022/03/25 09:07:26;;;;;;;37.10;20.48;;;;;;;20.56;37.74;99480.28;5086023;28;20316;-67
2022/03/25 09:09:52;;;;;;;41.20;21.33;;;;;;;20.70;36.89;99480.50;5085722;28;20194;-67
2022/03/25 09:12:17;;;;;;;38.72;20.98;;;;;;;21.20;36.17;99478.97;5085522;28;20032;-67
2022/03/25 09:14:43;;;;;;;39.28;21.90;;;;;;;21.41;36.59;99473.53;5085479;28;20068;-67
2022/03/25 09:17:09;;;;;;;40.75;21.90;;;;;;;21.75;34.54;99471.78;5085585;28;20056;-67
2022/03/25 09:19:34;;;;;;;42.58;23.50;;;;;;;21.52;34.97;99468.50;5085509;28;20025;-67
2022/03/25 09:21:59;;;;;;;40.50;21.77;;;;;;;21.47;34.08;99470.53;5078056;28;20020;-67
2022/03/25 09:24:26;;;;;;;38.17;22.25;;;;;;;21.47;34.95;99481.25;5068078;28;20025;-67
2022/03/25 09:26:51;;;;;;;43.33;22.88;;;;;;;21.27;34.95;99467.03;5065399;28;20091;-67
2022/03/25 09:29:17;;;;;;;40.35;22.58;;;;;;;21.80;33.05;99479.59;5065317;28;20092;-67
2022/03/25 09:31:43;;;;;;;40.35;22.55;;;;;;;21.56;34.24;99470.06;5065397;28;20335;-68
2022/03/25 09:37:11;;;;;;;38.63;21.88;;;;;;;22.06;34.40;99477.28;5043549;28;20021;-68
2022/03/25 09:39:36;;;;;;;43.10;23.67;;;;;;;21.15;35.14;99473.00;5076340;28;20039;-68
2022/03/25 09:42:04;;;;;;;45.72;25.52;;;;;;;21.66;33.33;99472.22;5085073;28;20023;-68
2022/03/25 09:44:31;;;;;;;40.65;23.00;;;;;;;21.88;34.71;99480.03;5085281;28;20197;-68
2022/03/25 09:46:56;;;;;;;39.20;23.17;;;;;;;21.34;35.15;99464.91;5084930;28;20016;-68
2022/03/25 09:49:22;;;;;;;44.72;24.90;;;;;;;21.73;35.23;99472.78;5084921;28;20031;-68
2022/03/25 09:51:47;;;;;;;37.08;21.27;;;;;;;22.55;32.21;99480.94;5084821;28;20020;-68
2022/03/25 09:54:14;;;;;;;40.70;22.00;;;;;;;22.13;31.55;99473.34;5084783;28;20093;-68
2022/03/25 09:56:40;;;;;;;44.85;24.30;;;;;;;22.17;32.71;99469.53;5084803;28;20211;-68
2022/03/25 09:59:07;;;;;;;45.15;24.73;;;;;;;22.68;31.32;99482.88;5084753;28;20020;-68
2022/03/25 10:01:34;;;;;;;43.17;23.70;;;;;;;22.22;34.52;99464.81;5084961;28;20016;-68
2022/03/25 10:03:59;;;;;;;43.47;24.27;;;;;;;22.16;32.15;99465.13;5084456;28;20027;-68
2022/03/25 10:06:25;;;;;;;38.58;22.70;;;;;;;22.32;31.57;99467.84;5084469;28;20024;-68
2022/03/25 10:09:02;;;;;;;41.05;23.10;;;;;;;21.56;32.32;99456.66;5084558;28;20020;-68
2022/03/25 10:11:32;;;;;;;43.38;22.40;;;;;;;21.85;34.31;99462.31;5081206;28;20308;-68
2022/03/25 10:14:14;;;;;;;46.72;23.08;;;;;;;21.82;33.96;99464.28;5064220;28;20292;-68
2022/03/25 10:16:41;;;;;;;51.28;24.50;;;;;;;22.17;33.10;99455.25;5081318;28;20074;-68
2022/03/25 10:19:09;;;;;;;46.03;24.27;;;;;;;21.87;33.33;99449.72;5083256;28;20224;-68
2022/03/25 10:21:56;;;;;;;41.53;23.58;;;;;;;22.01;32.96;99457.00;5084353;28;20032;-68
2022/03/25 10:24:48;;;;;;;42.47;24.20;;;;;;;22.37;33.21;99460.44;5081709;28;20250;-68
2022/03/25 10:27:21;;;;;;;44.13;24.33;;;;;;;22.74;30.66;99462.88;5072835;28;20025;-68
2022/03/25 10:29:50;;;;;;;41.05;23.00;;;;;;;22.07;31.65;99456.69;5074845;28;20020;-68
2022/03/25 10:32:20;;;;;;;44.88;23.20;;;;;;;21.57;30.36;99455.75;5069001;28;20040;-69
2022/03/25 10:35:09;;;;;;;44.97;25.05;;;;;;;21.79;31.84;99451.03;5094263;28;20020;-69
2022/03/25 10:37:53;;;;;;;44.55;22.77;;;;;;;21.97;33.41;99450.97;5095169;28;20130;-69
2022/03/25 10:40:19;;;;;;;42.97;23.23;;;;;;;22.38;30.68;99456.81;5104447;28;20034;-66
2022/03/25 10:43:07;;;;;;;45.00;24.58;;;;;;;21.81;31.98;99446.47;5085771;28;20024;-68
2022/03/25 10:45:34;;;;;;;43.05;23.50;;;;;;;22.35;32.41;99451.59;5083257;28;20024;-67
2022/03/25 10:48:13;;;;;;;46.05;24.23;;;;;;;22.31;32.57;99450.03;5083842;28;20130;-67
2022/03/25 10:51:03;;;;;;;42.95;24.38;;;;;;;22.51;31.48;99452.53;5082868;28;20020;-67
2022/03/25 10:53:31;;;;;;;39.28;22.38;;;;;;;22.31;30.08;99450.03;5083988;28;20036;-67
2022/03/25 10:56:06;;;;;;;46.63;24.25;;;;;;;22.11;31.02;99447.56;5083674;28;20024;-67
2022/03/25 10:58:32;;;;;;;41.47;21.58;;;;;;;22.14;29.11;99450.94;5082745;28;20216;-67
2022/03/25 11:00:59;;;;;;;47.40;24.35;;;;;;;22.04;31.44;99440.75;5083616;28;20254;-67
2022/03/25 11:03:25;;;;;;;42.88;23.00;;;;;;;22.12;31.22;99441.25;5064071;28;20029;-67
2022/03/25 11:05:52;;;;;;;48.90;23.38;;;;;;;22.24;29.78;99437.91;5063765;28;20036;-67
2022/03/25 11:08:18;;;;;;;42.63;22.98;;;;;;;21.83;31.03;99436.53;5064025;28;20092;-67
2022/03/25 11:10:43;;;;;;;44.80;24.52;;;;;;;21.48;32.88;99432.94;5063612;28;20036;-67
2022/03/25 11:13:09;;;;;;;42.72;19.48;;;;;;;21.47;31.78;99438.38;5063626;28;20240;-67
2022/03/25 11:15:36;;;;;;;42.53;23.52;;;;;;;21.33;31.90;99437.25;5067413;28;20247;-67
2022/03/25 11:18:02;;;;;;;43.78;23.05;;;;;;;21.71;31.46;99445.19;5083992;28;20036;-67
2022/03/25 11:20:28;;;;;;;44.08;21.35;;;;;;;21.76;30.54;99445.84;5083718;28;20028;-67
2022/03/25 11:23:06;;;;;;;42.78;21.13;;;;;;;21.58;30.39;99436.03;5081078;28;20201;-67
2022/03/25 11:25:37;;;;;;;39.20;20.83;;;;;;;21.60;29.74;99432.31;5063719;28;20059;-67